sensor_id;sensor_type;location;lat;lon;timestamp;pressure;altitude;pressure_sealevel;temperature;humidity
70248;BME280;57641;51.416;5.506;2024-03-08T00:00:27;101858.41;;;10.46;49.37
70248;BME280;57641;51.416;5.506;2024-03-08T00:02:52;101866.03;;;10.51;49.25
70248;BME280;57641;51.416;5.506;2024-03-08T00:05:19;101853.53;;;10.20;49.76
70248;BME280;57641;51.416;5.506;2024-03-08T00:07:45;101852.94;;;10.16;49.77
70248;BME280;57641;51.416;5.506;2024-03-08T00:10:12;101852.31;;;10.24;49.27
70248;BME280;57641;51.416;5.506;2024-03-08T00:12:39;101859.41;;;9.80;50.93
70248;BME280;57641;51.416;5.506;2024-03-08T00:15:09;101851.28;;;9.93;50.00
70248;BME280;57641;51.416;5.506;2024-03-08T00:17:36;101855.72;;;10.14;49.54
70248;BME280;57641;51.416;5.506;2024-03-08T00:20:01;101849.09;;;9.98;49.00
70248;BME280;57641;51.416;5.506;2024-03-08T00:22:28;101841.00;;;9.88;50.51
70248;BME280;57641;51.416;5.506;2024-03-08T00:24:55;101844.75;;;9.86;50.16
70248;BME280;57641;51.416;5.506;2024-03-08T00:27:21;101842.19;;;9.84;49.81
70248;BME280;57641;51.416;5.506;2024-03-08T00:29:47;101845.66;;;10.07;49.71
70248;BME280;57641;51.416;5.506;2024-03-08T00:32:12;101843.31;;;9.82;49.73
70248;BME280;57641;51.416;5.506;2024-03-08T00:34:38;101839.03;;;9.90;49.38
70248;BME280;57641;51.416;5.506;2024-03-08T00:37:04;101838.06;;;9.91;49.71
70248;BME280;57641;51.416;5.506;2024-03-08T00:39:29;101839.84;;;10.13;48.77
70248;BME280;57641;51.416;5.506;2024-03-08T00:41:55;101831.78;;;9.92;49.59
70248;BME280;57641;51.416;5.506;2024-03-08T00:44:20;101831.25;;;9.66;50.52
70248;BME280;57641;51.416;5.506;2024-03-08T00:46:46;101821.50;;;9.88;49.81
70248;BME280;57641;51.416;5.506;2024-03-08T00:49:11;101821.81;;;10.16;48.82
70248;BME280;57641;51.416;5.506;2024-03-08T00:51:38;101818.59;;;9.80;49.59
70248;BME280;57641;51.416;5.506;2024-03-08T00:54:03;101816.59;;;9.61;50.81
70248;BME280;57641;51.416;5.506;2024-03-08T00:56:29;101816.59;;;9.61;50.07
70248;BME280;57641;51.416;5.506;2024-03-08T00:58:54;101808.84;;;9.58;50.38
70248;BME280;57641;51.416;5.506;2024-03-08T01:01:20;101808.13;;;9.56;50.30
70248;BME280;57641;51.416;5.506;2024-03-08T01:03:45;101800.00;;;9.57;50.01
70248;BME280;57641;51.416;5.506;2024-03-08T01:06:11;101802.66;;;9.57;50.00
70248;BME280;57641;51.416;5.506;2024-03-08T01:08:37;101807.56;;;9.30;51.02
70248;BME280;57641;51.416;5.506;2024-03-08T01:11:04;101800.28;;;9.21;50.43
70248;BME280;57641;51.416;5.506;2024-03-08T01:13:33;101798.09;;;9.48;49.82
70248;BME280;57641;51.416;5.506;2024-03-08T01:15:58;101798.91;;;9.71;48.67
70248;BME280;57641;51.416;5.506;2024-03-08T01:18:23;101792.06;;;9.89;48.92
70248;BME280;57641;51.416;5.506;2024-03-08T01:20:49;101795.88;;;9.75;49.19
70248;BME280;57641;51.416;5.506;2024-03-08T01:23:14;101796.06;;;9.41;49.80
70248;BME280;57641;51.416;5.506;2024-03-08T01:25:40;101798.72;;;9.29;50.17
70248;BME280;57641;51.416;5.506;2024-03-08T01:28:07;101795.09;;;9.30;50.15
70248;BME280;57641;51.416;5.506;2024-03-08T01:30:32;101786.38;;;9.51;50.04
70248;BME280;57641;51.416;5.506;2024-03-08T01:33:00;101793.88;;;9.12;49.83
70248;BME280;57641;51.416;5.506;2024-03-08T01:35:25;101791.81;;;9.27;49.52
70248;BME280;57641;51.416;5.506;2024-03-08T01:37:52;101784.47;;;9.19;50.08
70248;BME280;57641;51.416;5.506;2024-03-08T01:40:18;101785.31;;;9.09;50.82
70248;BME280;57641;51.416;5.506;2024-03-08T01:42:43;101777.66;;;9.26;49.91
70248;BME280;57641;51.416;5.506;2024-03-08T01:45:10;101775.47;;;9.31;49.80
70248;BME280;57641;51.416;5.506;2024-03-08T01:47:35;101771.97;;;9.42;48.74
70248;BME280;57641;51.416;5.506;2024-03-08T01:50:03;101776.47;;;9.30;48.73
70248;BME280;57641;51.416;5.506;2024-03-08T01:52:32;101767.28;;;9.35;49.21
70248;BME280;57641;51.416;5.506;2024-03-08T01:55:01;101759.09;;;9.69;47.89
70248;BME280;57641;51.416;5.506;2024-03-08T01:57:31;101755.53;;;9.37;48.63
70248;BME280;57641;51.416;5.506;2024-03-08T02:00:00;101757.06;;;9.62;47.54
70248;BME280;57641;51.416;5.506;2024-03-08T02:02:27;101758.91;;;9.39;48.38
70248;BME280;57641;51.416;5.506;2024-03-08T02:04:53;101748.16;;;9.41;48.39
70248;BME280;57641;51.416;5.506;2024-03-08T02:07:19;101756.16;;;8.96;49.86
70248;BME280;57641;51.416;5.506;2024-03-08T02:09:45;101756.38;;;9.38;48.01
70248;BME280;57641;51.416;5.506;2024-03-08T02:12:10;101744.19;;;9.24;49.21
70248;BME280;57641;51.416;5.506;2024-03-08T02:14:36;101751.31;;;9.01;49.03
70248;BME280;57641;51.416;5.506;2024-03-08T02:17:02;101748.91;;;8.98;50.21
70248;BME280;57641;51.416;5.506;2024-03-08T02:19:27;101749.41;;;8.92;50.53
70248;BME280;57641;51.416;5.506;2024-03-08T02:21:53;101743.13;;;8.93;49.55
70248;BME280;57641;51.416;5.506;2024-03-08T02:24:19;101734.88;;;8.96;49.51
70248;BME280;57641;51.416;5.506;2024-03-08T02:26:44;101735.50;;;8.77;49.58
70248;BME280;57641;51.416;5.506;2024-03-08T02:29:10;101729.56;;;8.74;50.43
70248;BME280;57641;51.416;5.506;2024-03-08T02:31:35;101732.09;;;8.64;49.81
70248;BME280;57641;51.416;5.506;2024-03-08T02:34:01;101732.66;;;8.57;50.71
70248;BME280;57641;51.416;5.506;2024-03-08T02:36:27;101718.91;;;8.63;50.43
70248;BME280;57641;51.416;5.506;2024-03-08T02:38:52;101717.22;;;8.84;50.24
70248;BME280;57641;51.416;5.506;2024-03-08T02:41:18;101714.94;;;8.79;49.24
70248;BME280;57641;51.416;5.506;2024-03-08T02:43:43;101713.72;;;8.83;49.07
70248;BME280;57641;51.416;5.506;2024-03-08T02:46:10;101712.16;;;8.81;50.17
70248;BME280;57641;51.416;5.506;2024-03-08T02:48:36;101706.97;;;8.79;49.75
70248;BME280;57641;51.416;5.506;2024-03-08T02:51:01;101712.53;;;8.65;50.05
70248;BME280;57641;51.416;5.506;2024-03-08T02:53:27;101697.91;;;8.71;49.56
70248;BME280;57641;51.416;5.506;2024-03-08T02:55:53;101703.44;;;8.90;49.12
70248;BME280;57641;51.416;5.506;2024-03-08T02:58:18;101700.19;;;8.98;48.51
70248;BME280;57641;51.416;5.506;2024-03-08T03:00:43;101694.75;;;8.55;50.35
70248;BME280;57641;51.416;5.506;2024-03-08T03:03:09;101691.00;;;8.35;50.42
70248;BME280;57641;51.416;5.506;2024-03-08T03:05:35;101687.25;;;8.60;49.97
70248;BME280;57641;51.416;5.506;2024-03-08T03:08:00;101683.00;;;8.57;50.31
70248;BME280;57641;51.416;5.506;2024-03-08T03:10:26;101686.22;;;8.27;50.37
70248;BME280;57641;51.416;5.506;2024-03-08T03:12:52;101682.88;;;8.36;50.10
70248;BME280;57641;51.416;5.506;2024-03-08T03:15:18;101680.47;;;8.33;50.92
70248;BME280;57641;51.416;5.506;2024-03-08T03:17:48;101674.31;;;8.33;50.31
70248;BME280;57641;51.416;5.506;2024-03-08T03:20:16;101673.50;;;8.55;49.57
70248;BME280;57641;51.416;5.506;2024-03-08T03:22:48;101664.91;;;8.62;49.12
70248;BME280;57641;51.416;5.506;2024-03-08T03:25:20;101666.97;;;8.70;48.92
70248;BME280;57641;51.416;5.506;2024-03-08T03:27:52;101663.34;;;8.60;49.48
70248;BME280;57641;51.416;5.506;2024-03-08T03:30:17;101665.72;;;8.96;47.60
70248;BME280;57641;51.416;5.506;2024-03-08T03:32:49;101665.63;;;8.53;49.45
70248;BME280;57641;51.416;5.506;2024-03-08T03:35:17;101663.56;;;8.68;48.95
70248;BME280;57641;51.416;5.506;2024-03-08T03:37:43;101662.97;;;8.53;48.90
70248;BME280;57641;51.416;5.506;2024-03-08T03:40:16;101661.88;;;8.44;49.42
70248;BME280;57641;51.416;5.506;2024-03-08T03:42:44;101652.97;;;8.45;49.43
70248;BME280;57641;51.416;5.506;2024-03-08T03:45:11;101654.69;;;8.23;50.50
70248;BME280;57641;51.416;5.506;2024-03-08T03:47:36;101655.56;;;8.23;50.14
70248;BME280;57641;51.416;5.506;2024-03-08T03:50:05;101655.53;;;8.12;50.33
70248;BME280;57641;51.416;5.506;2024-03-08T03:52:30;101648.00;;;8.30;49.49
70248;BME280;57641;51.416;5.506;2024-03-08T03:54:56;101656.31;;;7.90;50.62
70248;BME280;57641;51.416;5.506;2024-03-08T03:57:22;101655.81;;;7.85;50.94
70248;BME280;57641;51.416;5.506;2024-03-08T03:59:48;101658.81;;;7.81;51.35
70248;BME280;57641;51.416;5.506;2024-03-08T04:02:14;101646.16;;;7.84;51.37
70248;BME280;57641;51.416;5.506;2024-03-08T04:04:40;101652.41;;;7.83;50.96
70248;BME280;57641;51.416;5.506;2024-03-08T04:07:05;101646.47;;;8.03;50.25
70248;BME280;57641;51.416;5.506;2024-03-08T04:09:31;101657.06;;;7.92;51.01
70248;BME280;57641;51.416;5.506;2024-03-08T04:11:57;101639.44;;;7.91;49.96
70248;BME280;57641;51.416;5.506;2024-03-08T04:14:23;101633.91;;;8.17;49.86
70248;BME280;57641;51.416;5.506;2024-03-08T04:16:48;101631.84;;;8.09;50.38
70248;BME280;57641;51.416;5.506;2024-03-08T04:19:14;101633.53;;;8.10;49.08
70248;BME280;57641;51.416;5.506;2024-03-08T04:21:39;101625.34;;;8.02;50.50
70248;BME280;57641;51.416;5.506;2024-03-08T04:24:05;101625.44;;;8.00;50.29
70248;BME280;57641;51.416;5.506;2024-03-08T04:26:31;101635.78;;;7.81;50.74
70248;BME280;57641;51.416;5.506;2024-03-08T04:28:57;101633.69;;;7.74;51.03
70248;BME280;57641;51.416;5.506;2024-03-08T04:31:22;101629.72;;;7.79;50.74
70248;BME280;57641;51.416;5.506;2024-03-08T04:33:48;101629.84;;;7.78;50.61
70248;BME280;57641;51.416;5.506;2024-03-08T04:36:13;101622.88;;;7.88;49.95
70248;BME280;57641;51.416;5.506;2024-03-08T04:38:40;101621.59;;;8.16;50.13
70248;BME280;57641;51.416;5.506;2024-03-08T04:41:06;101618.69;;;8.07;49.15
70248;BME280;57641;51.416;5.506;2024-03-08T04:43:33;101613.47;;;7.95;49.49
70248;BME280;57641;51.416;5.506;2024-03-08T04:45:59;101620.50;;;8.07;49.24
70248;BME280;57641;51.416;5.506;2024-03-08T04:48:24;101616.13;;;7.95;49.85
70248;BME280;57641;51.416;5.506;2024-03-08T04:50:52;101614.84;;;8.12;49.62
70248;BME280;57641;51.416;5.506;2024-03-08T04:53:19;101611.66;;;7.95;49.72
70248;BME280;57641;51.416;5.506;2024-03-08T04:55:44;101610.44;;;7.88;49.60
70248;BME280;57641;51.416;5.506;2024-03-08T04:58:10;101605.78;;;8.03;49.02
70248;BME280;57641;51.416;5.506;2024-03-08T05:00:35;101609.16;;;8.16;49.11
70248;BME280;57641;51.416;5.506;2024-03-08T05:03:01;101600.09;;;7.96;49.42
70248;BME280;57641;51.416;5.506;2024-03-08T05:05:26;101597.00;;;8.36;48.17
70248;BME280;57641;51.416;5.506;2024-03-08T05:07:54;101598.91;;;8.23;48.64
70248;BME280;57641;51.416;5.506;2024-03-08T05:10:19;101595.38;;;8.00;49.01
70248;BME280;57641;51.416;5.506;2024-03-08T05:12:45;101594.28;;;7.91;49.46
70248;BME280;57641;51.416;5.506;2024-03-08T05:15:10;101595.00;;;7.82;50.02
70248;BME280;57641;51.416;5.506;2024-03-08T05:17:36;101590.06;;;7.89;49.82
70248;BME280;57641;51.416;5.506;2024-03-08T05:20:02;101586.91;;;7.84;50.32
70248;BME280;57641;51.416;5.506;2024-03-08T05:22:29;101586.81;;;7.96;49.31
70248;BME280;57641;51.416;5.506;2024-03-08T05:24:54;101589.59;;;8.06;49.53
70248;BME280;57641;51.416;5.506;2024-03-08T05:27:20;101584.16;;;7.96;49.79
70248;BME280;57641;51.416;5.506;2024-03-08T05:29:46;101582.13;;;8.22;48.88
70248;BME280;57641;51.416;5.506;2024-03-08T05:32:12;101582.72;;;8.26;48.01
70248;BME280;57641;51.416;5.506;2024-03-08T05:34:37;101582.38;;;8.19;48.64
70248;BME280;57641;51.416;5.506;2024-03-08T05:37:04;101587.91;;;8.16;48.37
70248;BME280;57641;51.416;5.506;2024-03-08T05:39:29;101572.81;;;8.05;48.87
70248;BME280;57641;51.416;5.506;2024-03-08T05:41:55;101572.72;;;8.07;49.09
70248;BME280;57641;51.416;5.506;2024-03-08T05:44:21;101574.38;;;7.86;49.29
70248;BME280;57641;51.416;5.506;2024-03-08T05:46:46;101574.31;;;7.63;49.62
70248;BME280;57641;51.416;5.506;2024-03-08T05:49:12;101573.78;;;8.16;48.32
70248;BME280;57641;51.416;5.506;2024-03-08T05:51:39;101570.94;;;8.30;47.55
70248;BME280;57641;51.416;5.506;2024-03-08T05:54:10;101571.25;;;7.92;49.01
70248;BME280;57641;51.416;5.506;2024-03-08T05:56:37;101567.09;;;7.88;49.07
70248;BME280;57641;51.416;5.506;2024-03-08T05:59:03;101567.38;;;7.96;48.92
70248;BME280;57641;51.416;5.506;2024-03-08T06:01:29;101556.69;;;7.62;50.04
70248;BME280;57641;51.416;5.506;2024-03-08T06:03:56;101551.84;;;8.14;48.14
70248;BME280;57641;51.416;5.506;2024-03-08T06:06:25;101553.72;;;7.89;49.17
70248;BME280;57641;51.416;5.506;2024-03-08T06:08:52;101551.56;;;7.94;49.37
70248;BME280;57641;51.416;5.506;2024-03-08T06:11:19;101548.78;;;7.96;48.79
70248;BME280;57641;51.416;5.506;2024-03-08T06:13:46;101550.09;;;7.79;49.07
70248;BME280;57641;51.416;5.506;2024-03-08T06:16:11;101540.81;;;7.96;49.18
70248;BME280;57641;51.416;5.506;2024-03-08T06:18:37;101543.50;;;8.07;48.43
70248;BME280;57641;51.416;5.506;2024-03-08T06:21:04;101536.59;;;7.93;49.08
70248;BME280;57641;51.416;5.506;2024-03-08T06:23:33;101531.50;;;7.68;49.59
70248;BME280;57641;51.416;5.506;2024-03-08T06:25:58;101533.47;;;7.99;48.57
70248;BME280;57641;51.416;5.506;2024-03-08T06:28:24;101539.00;;;7.85;49.67
70248;BME280;57641;51.416;5.506;2024-03-08T06:30:50;101540.31;;;7.69;49.93
70248;BME280;57641;51.416;5.506;2024-03-08T06:33:17;101536.84;;;7.90;49.25
70248;BME280;57641;51.416;5.506;2024-03-08T06:35:43;101531.03;;;7.74;49.31
70248;BME280;57641;51.416;5.506;2024-03-08T06:38:09;101533.09;;;7.82;49.60
70248;BME280;57641;51.416;5.506;2024-03-08T06:40:34;101538.75;;;7.88;48.88
70248;BME280;57641;51.416;5.506;2024-03-08T06:43:00;101529.47;;;7.72;49.67
70248;BME280;57641;51.416;5.506;2024-03-08T06:45:25;101527.97;;;7.56;50.79
70248;BME280;57641;51.416;5.506;2024-03-08T06:47:51;101527.63;;;7.61;49.87
70248;BME280;57641;51.416;5.506;2024-03-08T06:50:17;101532.25;;;7.35;51.38
70248;BME280;57641;51.416;5.506;2024-03-08T06:52:42;101533.16;;;7.58;50.28
70248;BME280;57641;51.416;5.506;2024-03-08T06:55:09;101529.72;;;7.34;50.86
70248;BME280;57641;51.416;5.506;2024-03-08T06:57:41;101529.16;;;7.52;50.52
70248;BME280;57641;51.416;5.506;2024-03-08T07:00:08;101524.78;;;7.40;50.94
70248;BME280;57641;51.416;5.506;2024-03-08T07:02:46;101530.41;;;7.59;50.96
70248;BME280;57641;51.416;5.506;2024-03-08T07:05:14;101527.94;;;7.34;51.92
70248;BME280;57641;51.416;5.506;2024-03-08T07:07:39;101530.78;;;7.66;50.61
70248;BME280;57641;51.416;5.506;2024-03-08T07:10:07;101526.16;;;7.57;50.19
70248;BME280;57641;51.416;5.506;2024-03-08T07:12:39;101525.63;;;7.87;49.29
70248;BME280;57641;51.416;5.506;2024-03-08T07:15:05;101528.00;;;7.68;50.68
70248;BME280;57641;51.416;5.506;2024-03-08T07:17:31;101524.16;;;7.94;49.81
70248;BME280;57641;51.416;5.506;2024-03-08T07:20:00;101529.13;;;8.21;49.41
70248;BME280;57641;51.416;5.506;2024-03-08T07:22:32;101524.28;;;8.15;49.32
70248;BME280;57641;51.416;5.506;2024-03-08T07:24:58;101524.78;;;8.09;49.32
70248;BME280;57641;51.416;5.506;2024-03-08T07:27:43;101522.72;;;8.01;50.36
70248;BME280;57641;51.416;5.506;2024-03-08T07:30:09;101518.38;;;8.00;50.42
70248;BME280;57641;51.416;5.506;2024-03-08T07:32:38;101520.66;;;8.16;49.18
70248;BME280;57641;51.416;5.506;2024-03-08T07:35:04;101512.69;;;8.27;49.46
70248;BME280;57641;51.416;5.506;2024-03-08T07:37:29;101504.72;;;8.16;49.50
70248;BME280;57641;51.416;5.506;2024-03-08T07:39:55;101506.94;;;8.33;49.67
70248;BME280;57641;51.416;5.506;2024-03-08T07:42:21;101504.88;;;8.14;49.75
70248;BME280;57641;51.416;5.506;2024-03-08T07:44:48;101494.09;;;8.49;48.20
70248;BME280;57641;51.416;5.506;2024-03-08T07:47:15;101490.59;;;8.48;49.37
70248;BME280;57641;51.416;5.506;2024-03-08T07:49:42;101498.84;;;8.34;49.88
70248;BME280;57641;51.416;5.506;2024-03-08T07:52:09;101490.03;;;8.34;49.58
70248;BME280;57641;51.416;5.506;2024-03-08T07:54:35;101486.13;;;8.49;49.33
70248;BME280;57641;51.416;5.506;2024-03-08T07:57:00;101481.16;;;8.67;49.16
70248;BME280;57641;51.416;5.506;2024-03-08T07:59:28;101485.41;;;8.36;49.94
70248;BME280;57641;51.416;5.506;2024-03-08T08:01:55;101476.41;;;8.70;49.03
70248;BME280;57641;51.416;5.506;2024-03-08T08:04:20;101476.94;;;8.85;48.65
70248;BME280;57641;51.416;5.506;2024-03-08T08:06:50;101476.63;;;8.67;48.65
70248;BME280;57641;51.416;5.506;2024-03-08T08:09:16;101473.91;;;8.89;48.46
70248;BME280;57641;51.416;5.506;2024-03-08T08:11:56;101457.72;;;9.13;47.45
70248;BME280;57641;51.416;5.506;2024-03-08T08:14:22;101458.44;;;9.15;48.09
70248;BME280;57641;51.416;5.506;2024-03-08T08:16:48;101458.19;;;9.18;47.62
70248;BME280;57641;51.416;5.506;2024-03-08T08:19:15;101448.34;;;9.30;47.07
70248;BME280;57641;51.416;5.506;2024-03-08T08:21:41;101450.78;;;9.01;47.59
70248;BME280;57641;51.416;5.506;2024-03-08T08:24:07;101446.28;;;8.81;48.48
70248;BME280;57641;51.416;5.506;2024-03-08T08:26:32;101442.78;;;9.01;48.77
70248;BME280;57641;51.416;5.506;2024-03-08T08:28:59;101438.06;;;9.05;48.76
70248;BME280;57641;51.416;5.506;2024-03-08T08:31:25;101438.19;;;9.24;48.57
70248;BME280;57641;51.416;5.506;2024-03-08T08:33:51;101448.59;;;9.78;46.82
70248;BME280;57641;51.416;5.506;2024-03-08T08:36:26;101439.03;;;9.45;47.94
70248;BME280;57641;51.416;5.506;2024-03-08T08:38:54;101442.94;;;9.71;47.24
70248;BME280;57641;51.416;5.506;2024-03-08T08:41:21;101435.84;;;9.51;47.54
70248;BME280;57641;51.416;5.506;2024-03-08T08:43:47;101435.91;;;9.61;47.47
70248;BME280;57641;51.416;5.506;2024-03-08T08:46:18;101437.09;;;9.78;46.95
70248;BME280;57641;51.416;5.506;2024-03-08T08:48:44;101432.75;;;10.16;46.54
70248;BME280;57641;51.416;5.506;2024-03-08T08:51:13;101436.78;;;10.11;46.00
70248;BME280;57641;51.416;5.506;2024-03-08T08:53:41;101427.31;;;10.28;45.76
70248;BME280;57641;51.416;5.506;2024-03-08T08:56:15;101424.44;;;10.10;46.49
70248;BME280;57641;51.416;5.506;2024-03-08T08:58:44;101431.19;;;9.74;46.82
70248;BME280;57641;51.416;5.506;2024-03-08T09:01:10;101421.91;;;9.99;46.67
70248;BME280;57641;51.416;5.506;2024-03-08T09:03:37;101417.88;;;10.14;46.41
70248;BME280;57641;51.416;5.506;2024-03-08T09:06:04;101416.19;;;10.13;46.50
70248;BME280;57641;51.416;5.506;2024-03-08T09:08:30;101411.09;;;10.10;46.14
70248;BME280;57641;51.416;5.506;2024-03-08T09:10:56;101411.06;;;10.31;45.64
70248;BME280;57641;51.416;5.506;2024-03-08T09:13:21;101394.38;;;10.38;46.13
70248;BME280;57641;51.416;5.506;2024-03-08T09:15:47;101391.03;;;10.65;45.88
70248;BME280;57641;51.416;5.506;2024-03-08T09:18:12;101385.97;;;10.72;45.27
70248;BME280;57641;51.416;5.506;2024-03-08T09:20:38;101371.38;;;10.66;45.61
70248;BME280;57641;51.416;5.506;2024-03-08T09:23:03;101381.63;;;10.71;45.46
70248;BME280;57641;51.416;5.506;2024-03-08T09:25:29;101371.06;;;10.79;45.59
70248;BME280;57641;51.416;5.506;2024-03-08T09:27:55;101367.66;;;11.06;44.19
70248;BME280;57641;51.416;5.506;2024-03-08T09:30:21;101363.91;;;10.98;44.89
70248;BME280;57641;51.416;5.506;2024-03-08T09:32:47;101362.59;;;11.12;43.57
70248;BME280;57641;51.416;5.506;2024-03-08T09:35:12;101354.41;;;10.67;44.43
70248;BME280;57641;51.416;5.506;2024-03-08T09:37:38;101347.06;;;10.88;43.96
70248;BME280;57641;51.416;5.506;2024-03-08T09:40:04;101342.97;;;11.04;44.71
70248;BME280;57641;51.416;5.506;2024-03-08T09:42:37;101332.81;;;11.17;44.46
70248;BME280;57641;51.416;5.506;2024-03-08T09:45:08;101328.44;;;11.25;44.09
70248;BME280;57641;51.416;5.506;2024-03-08T09:47:43;101321.44;;;11.15;43.83
70248;BME280;57641;51.416;5.506;2024-03-08T09:50:10;101316.72;;;10.99;44.13
70248;BME280;57641;51.416;5.506;2024-03-08T09:52:41;101313.94;;;11.28;43.38
70248;BME280;57641;51.416;5.506;2024-03-08T09:55:12;101303.94;;;11.39;44.11
70248;BME280;57641;51.416;5.506;2024-03-08T09:57:38;101306.66;;;11.57;43.27
70248;BME280;57641;51.416;5.506;2024-03-08T10:00:05;101289.84;;;11.47;43.59
70248;BME280;57641;51.416;5.506;2024-03-08T10:02:46;101297.59;;;11.04;44.69
70248;BME280;57641;51.416;5.506;2024-03-08T10:05:12;101278.06;;;11.67;43.84
70248;BME280;57641;51.416;5.506;2024-03-08T10:07:39;101282.75;;;11.28;44.17
70248;BME280;57641;51.416;5.506;2024-03-08T10:10:05;101272.22;;;11.27;44.69
70248;BME280;57641;51.416;5.506;2024-03-08T10:12:34;101277.13;;;11.59;44.00
70248;BME280;57641;51.416;5.506;2024-03-08T10:15:00;101271.56;;;11.52;44.09
70248;BME280;57641;51.416;5.506;2024-03-08T10:17:25;101273.63;;;12.03;43.92
70248;BME280;57641;51.416;5.506;2024-03-08T10:19:52;101262.63;;;12.06;43.10
70248;BME280;57641;51.416;5.506;2024-03-08T10:22:19;101263.97;;;11.75;43.48
70248;BME280;57641;51.416;5.506;2024-03-08T10:24:46;101264.47;;;11.61;44.72
70248;BME280;57641;51.416;5.506;2024-03-08T10:27:11;101258.97;;;11.90;42.97
70248;BME280;57641;51.416;5.506;2024-03-08T10:29:37;101245.31;;;11.93;42.60
70248;BME280;57641;51.416;5.506;2024-03-08T10:32:04;101237.50;;;12.17;43.11
70248;BME280;57641;51.416;5.506;2024-03-08T10:34:32;101240.63;;;12.30;43.02
70248;BME280;57641;51.416;5.506;2024-03-08T10:37:03;101225.06;;;12.25;43.23
70248;BME280;57641;51.416;5.506;2024-03-08T10:39:34;101230.56;;;12.50;43.49
70248;BME280;57641;51.416;5.506;2024-03-08T10:42:03;101229.22;;;12.46;41.80
70248;BME280;57641;51.416;5.506;2024-03-08T10:47:18;101212.38;;;12.53;40.98
70248;BME280;57641;51.416;5.506;2024-03-08T10:52:19;101213.28;;;12.36;41.51
70248;BME280;57641;51.416;5.506;2024-03-08T10:54:45;101205.47;;;12.68;40.79
70248;BME280;57641;51.416;5.506;2024-03-08T10:57:13;101223.38;;;12.50;40.35
70248;BME280;57641;51.416;5.506;2024-03-08T10:59:40;101200.13;;;12.68;41.25
70248;BME280;57641;51.416;5.506;2024-03-08T11:02:11;101204.72;;;12.84;39.24
70248;BME280;57641;51.416;5.506;2024-03-08T11:04:37;101199.44;;;12.66;39.71
70248;BME280;57641;51.416;5.506;2024-03-08T11:07:03;101193.66;;;12.79;40.63
70248;BME280;57641;51.416;5.506;2024-03-08T11:09:36;101195.19;;;13.16;38.44
70248;BME280;57641;51.416;5.506;2024-03-08T11:12:21;101185.16;;;12.92;39.13
70248;BME280;57641;51.416;5.506;2024-03-08T11:14:50;101194.16;;;12.83;38.97
70248;BME280;57641;51.416;5.506;2024-03-08T11:20:20;101179.34;;;13.38;37.70
70248;BME280;57641;51.416;5.506;2024-03-08T11:22:51;101182.38;;;13.01;39.36
70248;BME280;57641;51.416;5.506;2024-03-08T11:25:32;101168.69;;;13.04;39.32
70248;BME280;57641;51.416;5.506;2024-03-08T11:28:18;101170.69;;;13.52;38.74
70248;BME280;57641;51.416;5.506;2024-03-08T11:33:26;101150.91;;;13.53;38.23
70248;BME280;57641;51.416;5.506;2024-03-08T11:38:40;101150.97;;;13.78;38.56
70248;BME280;57641;51.416;5.506;2024-03-08T11:41:07;101157.16;;;13.70;38.03
70248;BME280;57641;51.416;5.506;2024-03-08T11:43:33;101147.97;;;13.89;36.76
70248;BME280;57641;51.416;5.506;2024-03-08T11:46:09;101140.06;;;13.87;37.61
70248;BME280;57641;51.416;5.506;2024-03-08T11:48:34;101136.91;;;14.00;37.90
70248;BME280;57641;51.416;5.506;2024-03-08T11:51:01;101142.59;;;13.97;37.43
70248;BME280;57641;51.416;5.506;2024-03-08T11:53:28;101135.03;;;14.09;37.53
70248;BME280;57641;51.416;5.506;2024-03-08T11:55:54;101134.53;;;14.21;37.05
70248;BME280;57641;51.416;5.506;2024-03-08T11:58:19;101140.06;;;14.04;37.10
70248;BME280;57641;51.416;5.506;2024-03-08T12:00:44;101132.69;;;14.14;36.60
70248;BME280;57641;51.416;5.506;2024-03-08T12:03:11;101128.97;;;14.23;36.57
70248;BME280;57641;51.416;5.506;2024-03-08T12:05:37;101128.31;;;14.29;36.37
70248;BME280;57641;51.416;5.506;2024-03-08T12:08:04;101113.22;;;14.28;35.54
70248;BME280;57641;51.416;5.506;2024-03-08T12:10:32;101110.88;;;14.25;36.39
70248;BME280;57641;51.416;5.506;2024-03-08T12:13:00;101098.94;;;14.52;36.42
70248;BME280;57641;51.416;5.506;2024-03-08T12:15:26;101109.69;;;14.44;36.82
70248;BME280;57641;51.416;5.506;2024-03-08T12:17:54;101096.84;;;14.70;35.45
70248;BME280;57641;51.416;5.506;2024-03-08T12:20:22;101095.84;;;14.79;35.24
70248;BME280;57641;51.416;5.506;2024-03-08T12:22:49;101100.25;;;14.64;35.83
70248;BME280;57641;51.416;5.506;2024-03-08T12:25:17;101096.22;;;14.68;36.39
70248;BME280;57641;51.416;5.506;2024-03-08T12:27:43;101087.00;;;15.01;35.76
70248;BME280;57641;51.416;5.506;2024-03-08T12:30:25;101087.41;;;14.90;35.81
70248;BME280;57641;51.416;5.506;2024-03-08T12:32:59;101079.97;;;14.92;36.23
70248;BME280;57641;51.416;5.506;2024-03-08T12:35:26;101082.47;;;15.25;35.08
70248;BME280;57641;51.416;5.506;2024-03-08T12:37:53;101077.78;;;15.27;35.14
70248;BME280;57641;51.416;5.506;2024-03-08T12:40:31;101067.44;;;15.15;35.36
70248;BME280;57641;51.416;5.506;2024-03-08T12:42:58;101054.59;;;15.03;35.91
70248;BME280;57641;51.416;5.506;2024-03-08T12:45:24;101054.47;;;14.96;35.63
70248;BME280;57641;51.416;5.506;2024-03-08T12:47:51;101057.88;;;15.13;35.50
70248;BME280;57641;51.416;5.506;2024-03-08T12:50:17;101053.00;;;15.16;35.32
70248;BME280;57641;51.416;5.506;2024-03-08T12:52:43;101057.22;;;15.34;35.22
70248;BME280;57641;51.416;5.506;2024-03-08T12:55:08;101045.84;;;15.32;35.15
70248;BME280;57641;51.416;5.506;2024-03-08T12:57:35;101052.41;;;15.06;35.42
70248;BME280;57641;51.416;5.506;2024-03-08T13:00:02;101041.56;;;15.23;35.66
70248;BME280;57641;51.416;5.506;2024-03-08T13:02:28;101034.78;;;15.27;34.67
70248;BME280;57641;51.416;5.506;2024-03-08T13:04:56;101026.19;;;15.08;34.88
70248;BME280;57641;51.416;5.506;2024-03-08T13:07:26;101019.91;;;14.93;34.99
70248;BME280;57641;51.416;5.506;2024-03-08T13:09:53;101019.44;;;15.35;35.31